createdAt,value
2019-05-01T00:01:28.217Z,100899.59
2019-05-01T00:04:14.031Z,100899.94
2019-05-01T00:06:42.760Z,100891.90
2019-05-01T00:09:12.079Z,100891.16
2019-05-01T00:11:39.080Z,100891.20
2019-05-01T00:14:06.602Z,100883.25
2019-05-01T00:16:33.856Z,100883.70
2019-05-01T00:19:00.652Z,100885.53
2019-05-01T00:21:27.675Z,100884.16
2019-05-01T00:23:54.501Z,100886.03
2019-05-01T00:26:21.377Z,100878.63
2019-05-01T00:28:48.415Z,100883.02
2019-05-01T00:31:15.864Z,100879.14
2019-05-01T00:33:44.129Z,100875.36
2019-05-01T00:36:11.184Z,100873.63
2019-05-01T00:38:38.057Z,100871.50
2019-05-01T00:41:05.280Z,100868.50
2019-05-01T00:43:32.428Z,100871.09
2019-05-01T00:45:59.167Z,100870.74
2019-05-01T00:48:26.348Z,100869.36
2019-05-01T00:50:53.802Z,100862.34
2019-05-01T00:53:21.663Z,100859.39
2019-05-01T00:55:50.346Z,100863.36
2019-05-01T00:58:22.551Z,100861.66
2019-05-01T01:00:57.358Z,100860.31
2019-05-01T01:03:24.626Z,100856.88
2019-05-01T01:05:51.431Z,100860.81
2019-05-01T01:08:18.588Z,100848.58
2019-05-01T01:10:46.654Z,100845.52
2019-05-01T01:13:13.905Z,100848.98
2019-05-01T01:15:40.850Z,100849.02
2019-05-01T01:18:07.497Z,100844.34
2019-05-01T01:20:34.236Z,100845.66
2019-05-01T01:23:01.302Z,100842.12
2019-05-01T01:25:28.533Z,100831.99
2019-05-01T01:27:55.492Z,100833.31
2019-05-01T01:30:22.337Z,100835.14
2019-05-01T01:32:49.087Z,100835.65
2019-05-01T01:35:16.244Z,100831.72
2019-05-01T01:37:43.081Z,100823.80
2019-05-01T01:40:10.519Z,100821.62
2019-05-01T01:42:38.170Z,100831.77
2019-05-01T01:45:18.845Z,100830.09
2019-05-01T01:48:04.228Z,100827.05
2019-05-01T01:50:31.311Z,100824.81
2019-05-01T01:52:59.322Z,100821.31
2019-05-01T01:55:26.087Z,100823.13
2019-05-01T01:57:53.235Z,100820.48
2019-05-01T02:00:23.048Z,100820.04
2019-05-01T02:02:54.461Z,100821.36
2019-05-01T02:05:23.186Z,100824.88
2019-05-01T02:07:50.341Z,100821.83
2019-05-01T02:10:17.608Z,100819.64
2019-05-01T02:12:44.478Z,100819.62
2019-05-01T02:15:12.362Z,100818.28
2019-05-01T02:17:39.572Z,100806.48
2019-05-01T02:20:06.988Z,100803.37
2019-05-01T02:22:34.162Z,100800.38
2019-05-01T02:25:03.182Z,100803.37
2019-05-01T02:27:42.289Z,100802.51
2019-05-01T02:30:11.220Z,100801.62
2019-05-01T02:32:38.948Z,100799.89
2019-05-01T02:35:06.262Z,100797.67
2019-05-01T02:37:33.783Z,100791.56
2019-05-01T02:40:02.067Z,100795.06
2019-05-01T02:42:31.672Z,100784.98
2019-05-01T02:45:00.384Z,100787.16
2019-05-01T02:47:29.161Z,100781.89
2019-05-01T02:49:59.966Z,100781.05
2019-05-01T02:52:29.798Z,100777.94
2019-05-01T02:54:58.375Z,100774.88
2019-05-01T02:57:26.439Z,100771.85
2019-05-01T02:59:54.703Z,100769.62
2019-05-01T03:02:23.389Z,100773.13
2019-05-01T03:04:51.275Z,100770.05
2019-05-01T03:07:18.661Z,100771.34
2019-05-01T03:09:45.611Z,100768.34
2019-05-01T03:12:14.049Z,100764.83
2019-05-01T03:14:42.847Z,100768.27
2019-05-01T03:17:29.095Z,100765.19
2019-05-01T03:19:57.711Z,100767.34
2019-05-01T03:22:44.818Z,100762.14
2019-05-01T03:25:11.799Z,100762.14
2019-05-01T03:27:39.700Z,100756.03
2019-05-01T03:30:06.593Z,100757.32
2019-05-01T03:32:33.564Z,100760.36
2019-05-01T03:35:00.485Z,100756.87
2019-05-01T03:37:27.647Z,100765.96
2019-05-01T03:39:54.535Z,100767.75
2019-05-01T03:42:21.319Z,100765.13
2019-05-01T03:44:48.026Z,100769.52
2019-05-01T03:47:14.708Z,100767.77
2019-05-01T03:49:41.447Z,100765.61
2019-05-01T03:52:08.198Z,100771.75
2019-05-01T03:54:35.237Z,100766.03
2019-05-01T03:57:02.284Z,100769.47
2019-05-01T03:59:29.061Z,100769.09
2019-05-01T04:01:57.584Z,100764.72
2019-05-01T04:04:26.297Z,100767.39
2019-05-01T04:06:53.341Z,100768.69
2019-05-01T04:09:20.112Z,100762.52
2019-05-01T04:11:46.959Z,100763.42
2019-05-01T04:14:13.591Z,100759.55
2019-05-01T04:16:42.344Z,100759.49
2019-05-01T04:19:09.620Z,100754.73
2019-05-01T04:21:38.291Z,100756.96
2019-05-01T04:24:05.067Z,100759.97
2019-05-01T04:26:31.929Z,100757.39
2019-05-01T04:29:15.596Z,100753.04
2019-05-01T04:31:56.283Z,100756.95
2019-05-01T04:34:40.190Z,100761.69
2019-05-01T04:37:09.110Z,100754.75
2019-05-01T04:39:35.997Z,100756.11
2019-05-01T04:42:03.097Z,100757.87
2019-05-01T04:44:29.890Z,100756.14
2019-05-01T04:46:57.332Z,100752.60
2019-05-01T04:49:24.421Z,100751.83
2019-05-01T04:51:51.455Z,100747.84
2019-05-01T04:54:18.171Z,100738.66
2019-05-01T04:56:44.896Z,100743.47
2019-05-01T04:59:11.845Z,100734.80
2019-05-01T05:01:52.577Z,100729.34
2019-05-01T05:04:19.154Z,100726.83
2019-05-01T05:06:45.973Z,100730.86
2019-05-01T05:09:12.919Z,100730.58
2019-05-01T05:11:47.096Z,100736.27
2019-05-01T05:14:24.329Z,100737.00
2019-05-01T05:16:58.530Z,100731.70
2019-05-01T05:19:25.528Z,100741.11
2019-05-01T05:21:52.289Z,100733.08
2019-05-01T05:24:19.295Z,100734.54
2019-05-01T05:26:46.874Z,100735.36
2019-05-01T05:29:15.511Z,100732.05
2019-05-01T05:31:43.909Z,100726.88
2019-05-01T05:34:11.893Z,100726.64
2019-05-01T05:36:39.749Z,100727.70
2019-05-01T05:39:08.640Z,100731.71
2019-05-01T05:41:36.105Z,100714.85
2019-05-01T05:44:03.593Z,100710.39
2019-05-01T05:46:32.374Z,100717.52
2019-05-01T05:49:02.204Z,100716.79
2019-05-01T05:51:34.251Z,100719.77
2019-05-01T05:54:20.595Z,100711.13
2019-05-01T05:56:54.971Z,100713.85
2019-05-01T05:59:25.581Z,100714.64
2019-05-01T06:01:55.128Z,100712.88
2019-05-01T06:04:36.655Z,100711.67
2019-05-01T06:07:17.000Z,100707.80
2019-05-01T06:09:50.242Z,100701.44
2019-05-01T06:12:19.284Z,100707.20
2019-05-01T06:14:48.511Z,100700.24
2019-05-01T06:17:23.700Z,100701.13
2019-05-01T06:19:54.003Z,100693.03
2019-05-01T06:22:35.364Z,100696.13
2019-05-01T06:25:21.270Z,100695.38
2019-05-01T06:27:39.192Z,100698.98
2019-05-01T06:30:11.144Z,100695.66
2019-05-01T06:32:36.668Z,100691.50
2019-05-01T06:35:04.625Z,100690.73
2019-05-01T06:37:39.802Z,100685.81
2019-05-01T06:40:07.378Z,100693.14
2019-05-01T06:42:34.391Z,100686.08
2019-05-01T06:45:13.023Z,100683.19
2019-05-01T06:47:45.748Z,100684.23
2019-05-01T06:50:14.699Z,100683.56
2019-05-01T06:52:42.057Z,100677.11
2019-05-01T06:55:09.647Z,100677.59
2019-05-01T06:57:38.451Z,100673.07
2019-05-01T07:00:09.446Z,100677.50
2019-05-01T07:02:38.010Z,100679.27
2019-05-01T07:05:08.970Z,100678.48
2019-05-01T07:07:35.688Z,100666.17
2019-05-01T07:10:04.677Z,100663.58
2019-05-01T07:12:31.936Z,100651.04
2019-05-01T07:14:59.897Z,100654.66
2019-05-01T07:17:26.873Z,100646.59
2019-05-01T07:20:16.710Z,100643.41
2019-05-01T07:22:44.091Z,100643.14
2019-05-01T07:25:11.237Z,100638.55
2019-05-01T07:27:38.284Z,100627.99
2019-05-01T07:30:10.534Z,100637.17
2019-05-01T07:32:41.055Z,100623.95
2019-05-01T07:35:07.213Z,100636.28
2019-05-01T07:37:34.149Z,100639.36
2019-05-01T07:40:01.517Z,100642.81
2019-05-01T07:42:30.439Z,100643.75
2019-05-01T07:45:18.360Z,100642.72
2019-05-01T07:47:49.925Z,100637.80
2019-05-01T07:50:17.526Z,100637.33
2019-05-01T07:52:47.629Z,100636.45
2019-05-01T07:55:18.182Z,100638.64
2019-05-01T07:57:44.500Z,100630.19
2019-05-01T08:00:22.302Z,100632.88
2019-05-01T08:02:49.293Z,100628.62
2019-05-01T08:05:16.234Z,100624.97
2019-05-01T08:07:43.375Z,100628.82
2019-05-01T08:10:10.122Z,100625.59
2019-05-01T08:12:36.864Z,100620.72
2019-05-01T08:15:04.157Z,100630.36
2019-05-01T08:17:32.843Z,100637.37
2019-05-01T08:20:01.594Z,100630.20
2019-05-01T08:22:32.004Z,100625.88
2019-05-01T08:25:00.018Z,100612.46
2019-05-01T08:27:32.877Z,100614.32
2019-05-01T08:30:17.376Z,100611.23
2019-05-01T08:32:53.419Z,100624.02
2019-05-01T08:35:22.201Z,100612.42
2019-05-01T08:37:49.073Z,100608.52
2019-05-01T08:40:20.082Z,100604.11
2019-05-01T08:42:44.316Z,100607.19
2019-05-01T08:45:30.201Z,100599.36
2019-05-01T08:48:11.727Z,100594.52
2019-05-01T08:50:40.110Z,100596.75
2019-05-01T08:53:07.257Z,100599.23
2019-05-01T08:55:34.043Z,100588.63
2019-05-01T08:58:00.864Z,100591.23
2019-05-01T09:00:30.969Z,100589.52
2019-05-01T09:03:07.863Z,100584.62
2019-05-01T09:05:29.165Z,100579.12
2019-05-01T09:07:56.110Z,100581.34
2019-05-01T09:10:23.245Z,100583.05
2019-05-01T09:12:52.106Z,100587.25
2019-05-01T09:15:19.336Z,100586.41
2019-05-01T09:17:47.336Z,100571.56
2019-05-01T09:20:16.585Z,100565.14
2019-05-01T09:22:43.214Z,100566.25
2019-05-01T09:25:12.403Z,100575.92
2019-05-01T09:27:47.032Z,100585.97
2019-05-01T09:30:16.370Z,100575.53
2019-05-01T09:32:45.939Z,100575.53
2019-05-01T09:35:15.837Z,100568.23
2019-05-01T09:37:42.351Z,100568.18
2019-05-01T09:40:10.423Z,100558.69
2019-05-01T09:42:38.437Z,100554.65
2019-05-01T09:45:07.735Z,100550.99
2019-05-01T09:47:34.880Z,100549.97
2019-05-01T09:50:01.810Z,100538.01
2019-05-01T09:52:32.079Z,100538.84
2019-05-01T09:55:12.952Z,100542.11
2019-05-01T09:57:41.248Z,100528.47
2019-05-01T10:00:10.189Z,100530.16
2019-05-01T10:02:37.601Z,100532.13
2019-05-01T10:05:06.692Z,100526.98
2019-05-01T10:07:34.548Z,100522.56
2019-05-01T10:10:01.255Z,100523.28
2019-05-01T10:12:28.222Z,100513.18
2019-05-01T10:14:56.105Z,100505.98
2019-05-01T10:17:23.015Z,100501.73
2019-05-01T10:19:50.268Z,100496.53
2019-05-01T10:22:17.523Z,100492.63
2019-05-01T10:24:44.376Z,100500.75
2019-05-01T10:27:13.054Z,100499.87
2019-05-01T10:29:41.699Z,100498.35
2019-05-01T10:32:16.873Z,100496.42
2019-05-01T10:34:44.627Z,100493.84
2019-05-01T10:37:11.619Z,100482.30
2019-05-01T10:39:38.209Z,100470.27
2019-05-01T10:42:04.913Z,100485.02
2019-05-01T10:44:31.849Z,100486.81
2019-05-01T10:47:01.801Z,100478.34
2019-05-01T10:49:27.500Z,100484.31
2019-05-01T10:51:54.595Z,100475.71
2019-05-01T10:54:21.843Z,100477.75
2019-05-01T10:56:48.668Z,100470.52
2019-05-01T10:59:15.734Z,100465.98
2019-05-01T11:01:47.404Z,100462.86
2019-05-01T11:04:15.314Z,100460.70
2019-05-01T11:06:42.033Z,100462.41
2019-05-01T11:09:08.750Z,100454.34
2019-05-01T11:11:35.787Z,100449.03
2019-05-01T11:14:02.941Z,100440.30
2019-05-01T11:16:29.886Z,100431.00
2019-05-01T11:18:56.844Z,100433.56
2019-05-01T11:21:23.352Z,100426.63
2019-05-01T11:23:51.442Z,100434.59
2019-05-01T11:26:18.589Z,100429.59
2019-05-01T11:28:45.404Z,100425.41
2019-05-01T11:31:14.024Z,100425.14
2019-05-01T11:33:42.613Z,100421.10
2019-05-01T11:36:11.022Z,100415.73
2019-05-01T11:38:45.251Z,100412.22
2019-05-01T11:41:13.811Z,100418.31
2019-05-01T11:43:41.030Z,100413.18
2019-05-01T11:46:08.085Z,100420.58
2019-05-01T11:48:36.462Z,100411.70
2019-05-01T11:51:03.555Z,100419.08
2019-05-01T11:53:30.662Z,100408.62
2019-05-01T11:55:57.422Z,100410.64
2019-05-01T11:58:24.479Z,100409.08
2019-05-01T12:00:53.112Z,100396.91
2019-05-01T12:03:19.865Z,100402.95
2019-05-01T12:05:46.521Z,100391.11
2019-05-01T12:08:13.682Z,100387.01
2019-05-01T12:10:40.795Z,100390.17
2019-05-01T12:13:08.304Z,100381.70
2019-05-01T12:15:35.220Z,100368.81
2019-05-01T12:18:02.069Z,100366.83
2019-05-01T12:20:29.747Z,100369.37
2019-05-01T12:22:56.600Z,100366.54
2019-05-01T12:25:23.371Z,100361.44
2019-05-01T12:27:50.258Z,100366.82
2019-05-01T12:30:18.127Z,100353.55
2019-05-01T12:32:45.278Z,100359.81
2019-05-01T12:35:12.324Z,100351.94
2019-05-01T12:37:40.831Z,100355.28
2019-05-01T12:40:08.905Z,100365.28
2019-05-01T12:42:36.543Z,100354.93
2019-05-01T12:45:04.829Z,100340.02
2019-05-01T12:47:33.867Z,100345.10
2019-05-01T12:50:00.792Z,100332.08
2019-05-01T12:52:32.832Z,100328.17
2019-05-01T12:55:01.776Z,100335.18
2019-05-01T12:57:28.973Z,100330.84
2019-05-01T13:00:08.070Z,100317.83
2019-05-01T13:02:25.221Z,100310.45
2019-05-01T13:04:52.266Z,100297.72
2019-05-01T13:07:19.374Z,100305.62
2019-05-01T13:09:46.473Z,100304.83
2019-05-01T13:12:13.638Z,100303.52
2019-05-01T13:14:42.213Z,100290.05
2019-05-01T13:17:08.852Z,100283.12
2019-05-01T13:19:35.633Z,100294.84
2019-05-01T13:22:05.275Z,100287.39
2019-05-01T13:24:32.132Z,100289.23
2019-05-01T13:27:01.028Z,100282.36
2019-05-01T13:29:30.045Z,100285.75
2019-05-01T13:32:02.428Z,100288.21
2019-05-01T13:34:29.461Z,100284.13
2019-05-01T13:37:02.885Z,100284.42
2019-05-01T13:39:25.380Z,100276.52
2019-05-01T13:41:52.222Z,100280.98
2019-05-01T13:44:19.294Z,100280.20
2019-05-01T13:46:48.070Z,100281.45
2019-05-01T13:49:15.899Z,100277.23
2019-05-01T13:51:43.434Z,100278.94
2019-05-01T13:54:11.589Z,100273.64
2019-05-01T13:56:39.234Z,100274.44
2019-05-01T13:59:08.116Z,100276.59
2019-05-01T14:01:35.373Z,100271.23
2019-05-01T14:04:02.355Z,100273.23
2019-05-01T14:06:30.406Z,100282.17
2019-05-01T14:08:57.564Z,100270.13
2019-05-01T14:11:24.500Z,100272.00
2019-05-01T14:13:51.485Z,100275.49
2019-05-01T14:16:18.313Z,100276.35
2019-05-01T14:18:45.160Z,100271.36
2019-05-01T14:21:14.108Z,100275.47
2019-05-01T14:23:51.956Z,100272.31
2019-05-01T14:26:18.903Z,100261.64
2019-05-01T14:28:46.004Z,100256.23
2019-05-01T14:31:12.946Z,100257.87
2019-05-01T14:33:40.038Z,100257.20
2019-05-01T14:36:07.044Z,100248.27
2019-05-01T14:38:33.990Z,100247.52
2019-05-01T14:41:00.993Z,100250.40
2019-05-01T14:43:28.894Z,100250.66
2019-05-01T14:45:56.061Z,100266.01
2019-05-01T14:48:23.377Z,100264.19
2019-05-01T14:50:50.387Z,100268.86
2019-05-01T14:53:17.329Z,100265.14
2019-05-01T14:55:44.282Z,100263.73
2019-05-01T14:58:11.199Z,100261.52
2019-05-01T15:00:38.553Z,100267.33
2019-05-01T15:03:05.505Z,100268.91
2019-05-01T15:05:33.089Z,100270.92
2019-05-01T15:08:00.250Z,100265.92
2019-05-01T15:10:27.155Z,100268.20
2019-05-01T15:12:55.895Z,100272.98
2019-05-01T15:15:40.354Z,100276.20
2019-05-01T15:18:25.416Z,100271.41
2019-05-01T15:20:52.996Z,100285.19
2019-05-01T15:23:20.305Z,100277.41
2019-05-01T15:25:47.987Z,100275.78
2019-05-01T15:28:15.784Z,100271.73
2019-05-01T15:30:43.645Z,100272.49
2019-05-01T15:33:11.204Z,100264.91
2019-05-01T15:35:39.979Z,100266.98
2019-05-01T15:38:07.484Z,100269.23
2019-05-01T15:40:46.047Z,100271.04
2019-05-01T15:43:33.407Z,100268.24
2019-05-01T15:46:00.403Z,100274.41
2019-05-01T15:48:27.364Z,100272.28
2019-05-01T15:50:54.170Z,100278.41
2019-05-01T15:53:21.137Z,100272.66
2019-05-01T15:55:48.131Z,100270.91
2019-05-01T15:58:15.232Z,100275.10
2019-05-01T16:00:42.159Z,100269.13
2019-05-01T16:03:09.005Z,100278.55
2019-05-01T16:05:36.175Z,100273.23
2019-05-01T16:08:09.582Z,100269.89
2019-05-01T16:10:33.863Z,100274.84
2019-05-01T16:13:02.820Z,100280.61
2019-05-01T16:15:31.026Z,100275.42
2019-05-01T16:17:58.458Z,100271.55
2019-05-01T16:20:25.631Z,100276.18
2019-05-01T16:22:53.065Z,100270.17
2019-05-01T16:25:20.218Z,100278.08
2019-05-01T16:27:47.369Z,100273.15
2019-05-01T16:30:17.591Z,100275.80
2019-05-01T16:32:44.842Z,100277.33
2019-05-01T16:35:12.200Z,100274.17
2019-05-01T16:37:41.031Z,100285.41
2019-05-01T16:40:09.722Z,100281.52
2019-05-01T16:42:36.719Z,100272.09
2019-05-01T16:45:04.588Z,100279.27
2019-05-01T16:47:32.218Z,100281.78
2019-05-01T16:49:58.936Z,100279.28
2019-05-01T16:52:27.783Z,100274.55
2019-05-01T16:54:59.481Z,100280.70
2019-05-01T16:57:23.522Z,100287.71
2019-05-01T16:59:50.588Z,100289.16
2019-05-01T17:02:25.086Z,100276.70
2019-05-01T17:04:59.621Z,100278.67
2019-05-01T17:07:40.412Z,100274.77
2019-05-01T17:10:11.043Z,100270.28
2019-05-01T17:12:46.637Z,100270.44
2019-05-01T17:15:14.672Z,100276.77
2019-05-01T17:17:41.392Z,100285.47
2019-05-01T17:20:08.271Z,100282.44
2019-05-01T17:22:35.285Z,100279.58
2019-05-01T17:25:02.370Z,100275.51
2019-05-01T17:27:29.180Z,100274.61
2019-05-01T17:29:55.941Z,100276.30
2019-05-01T17:32:23.067Z,100272.90
2019-05-01T17:34:50.304Z,100275.45
2019-05-01T17:37:17.145Z,100274.63
2019-05-01T17:39:44.030Z,100268.48
2019-05-01T17:42:13.499Z,100270.39
2019-05-01T17:44:40.399Z,100266.90
2019-05-01T17:47:07.549Z,100272.38
2019-05-01T17:49:34.642Z,100273.80
2019-05-01T17:52:01.419Z,100270.95
2019-05-01T17:54:28.436Z,100270.00
2019-05-01T17:56:55.767Z,100269.30
2019-05-01T17:59:22.664Z,100274.45
2019-05-01T18:02:05.269Z,100268.78
2019-05-01T18:04:34.542Z,100274.52
2019-05-01T18:07:01.476Z,100266.34
2019-05-01T18:09:28.517Z,100272.33
2019-05-01T18:11:55.685Z,100271.56
2019-05-01T18:14:22.634Z,100271.44
2019-05-01T18:16:49.681Z,100268.91
2019-05-01T18:19:16.270Z,100259.45
2019-05-01T18:21:46.616Z,100264.97
2019-05-01T18:24:32.442Z,100265.34
2019-05-01T18:27:06.918Z,100256.41
2019-05-01T18:29:40.064Z,100246.27
2019-05-01T18:32:10.082Z,100245.03
2019-05-01T18:34:38.246Z,100246.36
2019-05-01T18:37:07.958Z,100243.41
2019-05-01T18:39:36.487Z,100236.77
2019-05-01T18:42:08.254Z,100244.27
2019-05-01T18:44:35.254Z,100256.66
2019-05-01T18:47:02.413Z,100245.30
2019-05-01T18:49:29.439Z,100251.40
2019-05-01T18:51:56.436Z,100250.05
2019-05-01T18:54:36.192Z,100255.69
2019-05-01T18:57:19.358Z,100249.42
2019-05-01T18:59:47.125Z,100241.31
2019-05-01T19:02:20.321Z,100242.39
2019-05-01T19:04:46.020Z,100242.07
2019-05-01T19:07:16.381Z,100247.84
2019-05-01T19:09:45.058Z,100252.64
2019-05-01T19:12:25.562Z,100256.29
2019-05-01T19:15:00.434Z,100251.38
2019-05-01T19:17:31.050Z,100251.75
2019-05-01T19:20:02.069Z,100257.73
2019-05-01T19:22:31.408Z,100250.92
2019-05-01T19:25:01.438Z,100258.55
2019-05-01T19:27:41.671Z,100262.30
2019-05-01T19:30:14.838Z,100250.66
2019-05-01T19:32:44.254Z,100254.78
2019-05-01T19:35:14.511Z,100254.47
2019-05-01T19:37:47.067Z,100256.05
2019-05-01T19:40:38.018Z,100254.17
2019-05-01T19:46:01.415Z,100239.02
2019-05-01T19:48:30.629Z,100243.95
2019-05-01T19:51:25.838Z,100243.41
2019-05-01T19:53:56.693Z,100234.35
2019-05-01T19:56:27.528Z,100235.62
2019-05-01T19:58:56.907Z,100230.76
2019-05-01T20:01:38.402Z,100234.72
2019-05-01T20:04:08.487Z,100231.55
2019-05-01T20:06:38.522Z,100224.10
2019-05-01T20:09:17.211Z,100228.87
2019-05-01T20:14:37.435Z,100223.44
2019-05-01T20:17:25.624Z,100217.77
2019-05-01T20:19:56.625Z,100218.59
2019-05-01T20:22:32.043Z,100222.46
2019-05-01T20:25:06.155Z,100214.06
2019-05-01T20:27:42.293Z,100212.52
2019-05-01T20:30:30.489Z,100211.34
2019-05-01T20:33:10.502Z,100216.61
2019-05-01T20:35:41.609Z,100211.67
2019-05-01T20:38:13.427Z,100213.42
2019-05-01T20:40:41.208Z,100205.36
2019-05-01T20:43:09.788Z,100206.95
2019-05-01T20:45:40.829Z,100205.95
2019-05-01T20:48:13.393Z,100207.97
2019-05-01T20:50:43.689Z,100207.30
2019-05-01T20:53:14.268Z,100214.02
2019-05-01T20:58:35.750Z,100212.59
2019-05-01T21:01:04.370Z,100195.32
2019-05-01T21:03:40.430Z,100199.27
2019-05-01T21:06:20.613Z,100199.21
2019-05-01T21:08:50.572Z,100190.30
2019-05-01T21:11:20.629Z,100189.58
2019-05-01T21:13:49.321Z,100190.19
2019-05-01T21:16:17.482Z,100184.23
2019-05-01T21:18:46.189Z,100177.47
2019-05-01T21:21:15.465Z,100180.32
2019-05-01T21:23:48.238Z,100178.56
2019-05-01T21:26:14.361Z,100182.02
2019-05-01T21:28:47.975Z,100185.93
2019-05-01T21:31:27.641Z,100179.31
2019-05-01T21:33:56.936Z,100185.83
2019-05-01T21:36:25.353Z,100169.73
2019-05-01T21:38:55.479Z,100166.97
2019-05-01T21:41:23.958Z,100155.50
2019-05-01T21:43:52.954Z,100162.09
2019-05-01T21:46:20.487Z,100152.84
2019-05-01T21:48:47.405Z,100153.63
2019-05-01T21:51:14.563Z,100143.76
2019-05-01T21:53:42.773Z,100135.26
2019-05-01T21:56:10.313Z,100142.27
2019-05-01T21:58:36.953Z,100137.08
2019-05-01T22:01:05.278Z,100133.28
2019-05-01T22:03:32.561Z,100131.56
2019-05-01T22:05:59.405Z,100133.55
2019-05-01T22:08:26.213Z,100129.38
2019-05-01T22:10:53.192Z,100121.31
2019-05-01T22:13:24.328Z,100121.67
2019-05-01T22:15:54.677Z,100120.45
2019-05-01T22:18:23.449Z,100124.08
2019-05-01T22:21:09.556Z,100117.81
2019-05-01T22:23:55.191Z,100114.68
2019-05-01T22:26:23.877Z,100114.93
2019-05-01T22:28:54.844Z,100105.30
2019-05-01T22:31:29.796Z,100102.52
2019-05-01T22:34:01.387Z,100095.56
2019-05-01T22:36:28.155Z,100091.21
2019-05-01T22:38:55.239Z,100089.00
2019-05-01T22:41:22.189Z,100081.95
2019-05-01T22:43:49.252Z,100078.98
2019-05-01T22:46:18.331Z,100074.15
2019-05-01T22:48:45.476Z,100067.09
2019-05-01T22:51:14.487Z,100066.30
2019-05-01T22:53:41.329Z,100057.19
2019-05-01T22:56:08.183Z,100055.62
2019-05-01T22:58:34.910Z,100044.19
2019-05-01T23:01:01.662Z,100046.72
2019-05-01T23:03:30.433Z,100041.26
2019-05-01T23:05:57.506Z,100036.31
2019-05-01T23:08:24.798Z,100025.26
2019-05-01T23:10:51.761Z,100025.82
2019-05-01T23:13:18.475Z,100022.83
2019-05-01T23:15:45.221Z,100021.91
2019-05-01T23:18:15.425Z,100012.44
2019-05-01T23:20:41.521Z,100012.98
2019-05-01T23:23:08.351Z,100013.58
2019-05-01T23:25:36.593Z,100012.77
2019-05-01T23:28:05.961Z,100011.83
2019-05-01T23:30:33.303Z,100012.61
2019-05-01T23:33:00.135Z,99996.16
2019-05-01T23:35:28.330Z,99998.83
2019-05-01T23:37:55.247Z,100001.81
2019-05-01T23:40:22.211Z,99992.77
2019-05-01T23:42:53.693Z,99987.34
2019-05-01T23:45:18.752Z,99982.98
2019-05-01T23:47:45.904Z,99989.08
2019-05-01T23:50:13.668Z,99984.64
2019-05-01T23:52:40.738Z,99984.69
2019-05-01T23:55:07.831Z,99986.70
2019-05-01T23:57:34.790Z,99983.91
